Mesa Poleo, New Mexico
Current Conditions -  °F | °C
As of 3:53 PM on Friday 31 Oct 2014 (Local Time) from KFMN Reporting Station
Clear Clear  
Wind Chill: 70°   Ceiling: Unl
Heat Index: 70°   Visibility: 10mi
Dew Point: 27°   Wind: 12mph
Humidity: 20%   Direction: 110°ESE
Pressure: 30.13"   Gusts: NA
Location:  36.3463°N, 107.543°W
Report Text: KFMN 312153Z 11010KT 10SM CLR 21/M03 A3013 RMK AO2 SLP170 T02111028
Loading
Personal Weather Stations






























Interactive Weather Map
Tropical Storm Tracking
New forecast layout! Learn more

10-Day Weather Forecast

Advertisements
Track Severe Weather on mobile